sensor_id;sensor_type;location;lat;lon;timestamp;temperature;humidity
10883;DHT22;5494;51.796;10.952;2022-07-29T00:01:41;17.00;99.90
10883;DHT22;5494;51.796;10.952;2022-07-29T00:04:11;16.90;99.90
10883;DHT22;5494;51.796;10.952;2022-07-29T00:06:41;16.90;99.90
10883;DHT22;5494;51.796;10.952;2022-07-29T00:09:10;16.90;99.90
10883;DHT22;5494;51.796;10.952;2022-07-29T00:11:39;16.90;99.90
10883;DHT22;5494;51.796;10.952;2022-07-29T00:14:08;16.90;99.90
10883;DHT22;5494;51.796;10.952;2022-07-29T00:16:37;16.80;99.90
10883;DHT22;5494;51.796;10.952;2022-07-29T00:19:06;16.80;99.90
10883;DHT22;5494;51.796;10.952;2022-07-29T00:21:34;16.80;99.90
10883;DHT22;5494;51.796;10.952;2022-07-29T00:24:03;16.70;99.90
10883;DHT22;5494;51.796;10.952;2022-07-29T00:26:33;16.70;99.90
10883;DHT22;5494;51.796;10.952;2022-07-29T00:29:03;16.70;99.90
10883;DHT22;5494;51.796;10.952;2022-07-29T00:31:52;16.70;99.90
10883;DHT22;5494;51.796;10.952;2022-07-29T00:34:20;16.70;99.90
10883;DHT22;5494;51.796;10.952;2022-07-29T00:37:07;16.80;99.90
10883;DHT22;5494;51.796;10.952;2022-07-29T00:39:35;16.80;99.90
10883;DHT22;5494;51.796;10.952;2022-07-29T00:42:05;16.70;99.90
10883;DHT22;5494;51.796;10.952;2022-07-29T00:44:37;16.80;99.90
10883;DHT22;5494;51.796;10.952;2022-07-29T00:47:06;16.80;99.90
10883;DHT22;5494;51.796;10.952;2022-07-29T00:49:36;16.80;99.90
10883;DHT22;5494;51.796;10.952;2022-07-29T00:52:08;16.80;99.90
10883;DHT22;5494;51.796;10.952;2022-07-29T00:54:38;16.80;99.90
10883;DHT22;5494;51.796;10.952;2022-07-29T00:57:12;16.80;99.90
10883;DHT22;5494;51.796;10.952;2022-07-29T00:59:41;16.80;99.90
10883;DHT22;5494;51.796;10.952;2022-07-29T01:02:09;16.90;99.90
10883;DHT22;5494;51.796;10.952;2022-07-29T01:04:38;16.80;99.90
10883;DHT22;5494;51.796;10.952;2022-07-29T01:07:07;16.80;99.90
10883;DHT22;5494;51.796;10.952;2022-07-29T01:09:37;16.80;99.90
10883;DHT22;5494;51.796;10.952;2022-07-29T01:12:17;16.80;99.90
10883;DHT22;5494;51.796;10.952;2022-07-29T01:14:52;16.80;99.90
10883;DHT22;5494;51.796;10.952;2022-07-29T01:17:25;16.80;99.90
10883;DHT22;5494;51.796;10.952;2022-07-29T01:20:03;16.80;99.90
10883;DHT22;5494;51.796;10.952;2022-07-29T01:22:42;16.80;99.90
10883;DHT22;5494;51.796;10.952;2022-07-29T01:25:40;16.70;99.90
10883;DHT22;5494;51.796;10.952;2022-07-29T01:28:49;16.70;99.90
10883;DHT22;5494;51.796;10.952;2022-07-29T01:31:28;16.70;99.90
10883;DHT22;5494;51.796;10.952;2022-07-29T01:34:11;16.70;99.90
10883;DHT22;5494;51.796;10.952;2022-07-29T01:36:51;16.70;99.90
10883;DHT22;5494;51.796;10.952;2022-07-29T01:39:30;16.70;99.90
10883;DHT22;5494;51.796;10.952;2022-07-29T01:42:07;16.70;99.90
10883;DHT22;5494;51.796;10.952;2022-07-29T01:44:55;16.70;99.90
10883;DHT22;5494;51.796;10.952;2022-07-29T01:47:32;16.80;99.90
10883;DHT22;5494;51.796;10.952;2022-07-29T01:50:08;16.70;99.90
10883;DHT22;5494;51.796;10.952;2022-07-29T01:52:44;16.70;99.90
10883;DHT22;5494;51.796;10.952;2022-07-29T01:55:17;16.70;99.90
10883;DHT22;5494;51.796;10.952;2022-07-29T01:57:51;16.70;99.90
10883;DHT22;5494;51.796;10.952;2022-07-29T02:00:22;16.80;99.90
10883;DHT22;5494;51.796;10.952;2022-07-29T02:02:53;16.80;99.90
10883;DHT22;5494;51.796;10.952;2022-07-29T02:05:25;16.70;99.90
10883;DHT22;5494;51.796;10.952;2022-07-29T02:07:58;16.70;99.90
10883;DHT22;5494;51.796;10.952;2022-07-29T02:10:31;16.70;99.90
10883;DHT22;5494;51.796;10.952;2022-07-29T02:13:02;16.70;99.90
10883;DHT22;5494;51.796;10.952;2022-07-29T02:15:35;16.70;99.90
10883;DHT22;5494;51.796;10.952;2022-07-29T02:18:07;16.70;99.90
10883;DHT22;5494;51.796;10.952;2022-07-29T02:20:38;16.80;99.90
10883;DHT22;5494;51.796;10.952;2022-07-29T02:23:10;16.70;99.90
10883;DHT22;5494;51.796;10.952;2022-07-29T02:25:41;16.70;99.90
10883;DHT22;5494;51.796;10.952;2022-07-29T02:28:12;16.70;99.90
10883;DHT22;5494;51.796;10.952;2022-07-29T02:30:44;16.70;99.90
10883;DHT22;5494;51.796;10.952;2022-07-29T02:33:15;16.70;99.90
10883;DHT22;5494;51.796;10.952;2022-07-29T02:35:47;16.70;99.90
10883;DHT22;5494;51.796;10.952;2022-07-29T02:38:18;16.70;99.90
10883;DHT22;5494;51.796;10.952;2022-07-29T02:41:10;16.80;99.90
10883;DHT22;5494;51.796;10.952;2022-07-29T02:43:40;16.90;99.90
10883;DHT22;5494;51.796;10.952;2022-07-29T02:46:15;16.90;99.90
10883;DHT22;5494;51.796;10.952;2022-07-29T02:48:59;16.80;99.90
10883;DHT22;5494;51.796;10.952;2022-07-29T02:51:40;16.70;99.90
10883;DHT22;5494;51.796;10.952;2022-07-29T02:54:17;16.60;99.90
10883;DHT22;5494;51.796;10.952;2022-07-29T02:56:51;16.60;99.90
10883;DHT22;5494;51.796;10.952;2022-07-29T02:59:25;16.60;99.90
10883;DHT22;5494;51.796;10.952;2022-07-29T03:01:57;16.60;99.90
10883;DHT22;5494;51.796;10.952;2022-07-29T03:04:28;16.60;99.90
10883;DHT22;5494;51.796;10.952;2022-07-29T03:07:00;16.60;99.90
10883;DHT22;5494;51.796;10.952;2022-07-29T03:09:30;16.60;99.90
10883;DHT22;5494;51.796;10.952;2022-07-29T03:12:00;16.60;99.90
10883;DHT22;5494;51.796;10.952;2022-07-29T03:14:30;16.60;99.90
10883;DHT22;5494;51.796;10.952;2022-07-29T03:17:02;16.60;99.90
10883;DHT22;5494;51.796;10.952;2022-07-29T03:19:31;16.70;99.90
10883;DHT22;5494;51.796;10.952;2022-07-29T03:22:01;16.70;99.90
10883;DHT22;5494;51.796;10.952;2022-07-29T03:24:32;16.70;99.90
10883;DHT22;5494;51.796;10.952;2022-07-29T03:27:02;16.70;99.90
10883;DHT22;5494;51.796;10.952;2022-07-29T03:29:31;16.60;99.90
10883;DHT22;5494;51.796;10.952;2022-07-29T03:32:04;16.60;99.90
10883;DHT22;5494;51.796;10.952;2022-07-29T03:34:35;16.60;99.90
10883;DHT22;5494;51.796;10.952;2022-07-29T03:37:05;16.70;99.90
10883;DHT22;5494;51.796;10.952;2022-07-29T03:39:38;16.70;99.90
10883;DHT22;5494;51.796;10.952;2022-07-29T03:42:12;16.70;99.90
10883;DHT22;5494;51.796;10.952;2022-07-29T03:44:44;16.60;99.90
10883;DHT22;5494;51.796;10.952;2022-07-29T03:47:20;16.60;99.90
10883;DHT22;5494;51.796;10.952;2022-07-29T03:50:14;16.60;99.90
10883;DHT22;5494;51.796;10.952;2022-07-29T03:52:43;16.70;99.90
10883;DHT22;5494;51.796;10.952;2022-07-29T03:55:12;16.70;99.90
10883;DHT22;5494;51.796;10.952;2022-07-29T03:57:41;16.70;99.90
10883;DHT22;5494;51.796;10.952;2022-07-29T04:00:12;16.60;99.90
10883;DHT22;5494;51.796;10.952;2022-07-29T04:02:44;16.60;99.90
10883;DHT22;5494;51.796;10.952;2022-07-29T04:05:17;16.50;99.90
10883;DHT22;5494;51.796;10.952;2022-07-29T04:07:46;16.60;99.90
10883;DHT22;5494;51.796;10.952;2022-07-29T04:10:16;16.70;99.90
10883;DHT22;5494;51.796;10.952;2022-07-29T04:12:59;16.70;99.90
10883;DHT22;5494;51.796;10.952;2022-07-29T04:15:27;16.60;99.90
10883;DHT22;5494;51.796;10.952;2022-07-29T04:17:59;16.70;99.90
10883;DHT22;5494;51.796;10.952;2022-07-29T04:20:27;16.70;99.90
10883;DHT22;5494;51.796;10.952;2022-07-29T04:22:56;16.70;99.90
10883;DHT22;5494;51.796;10.952;2022-07-29T04:25:25;16.70;99.90
10883;DHT22;5494;51.796;10.952;2022-07-29T04:27:53;16.70;99.90
10883;DHT22;5494;51.796;10.952;2022-07-29T04:30:31;16.70;99.90
10883;DHT22;5494;51.796;10.952;2022-07-29T04:33:03;16.70;99.90
10883;DHT22;5494;51.796;10.952;2022-07-29T04:35:35;16.80;99.90
10883;DHT22;5494;51.796;10.952;2022-07-29T04:38:17;16.80;99.90
10883;DHT22;5494;51.796;10.952;2022-07-29T04:40:45;16.80;99.90
10883;DHT22;5494;51.796;10.952;2022-07-29T04:43:16;16.80;99.90
10883;DHT22;5494;51.796;10.952;2022-07-29T04:45:49;16.90;99.90
10883;DHT22;5494;51.796;10.952;2022-07-29T04:48:20;16.90;99.90
10883;DHT22;5494;51.796;10.952;2022-07-29T04:50:55;16.90;99.90
10883;DHT22;5494;51.796;10.952;2022-07-29T04:53:24;16.80;99.90
10883;DHT22;5494;51.796;10.952;2022-07-29T04:55:53;16.70;99.90
10883;DHT22;5494;51.796;10.952;2022-07-29T04:58:22;16.70;99.90
10883;DHT22;5494;51.796;10.952;2022-07-29T05:00:51;16.80;99.90
10883;DHT22;5494;51.796;10.952;2022-07-29T05:03:20;16.90;99.90
10883;DHT22;5494;51.796;10.952;2022-07-29T05:05:49;16.90;99.90
10883;DHT22;5494;51.796;10.952;2022-07-29T05:08:17;16.90;99.90
10883;DHT22;5494;51.796;10.952;2022-07-29T05:10:45;16.90;99.90
10883;DHT22;5494;51.796;10.952;2022-07-29T05:13:14;16.90;99.90
10883;DHT22;5494;51.796;10.952;2022-07-29T05:15:43;16.90;99.90
10883;DHT22;5494;51.796;10.952;2022-07-29T05:18:11;16.90;99.90
10883;DHT22;5494;51.796;10.952;2022-07-29T05:20:42;16.80;99.90
10883;DHT22;5494;51.796;10.952;2022-07-29T05:23:11;16.80;99.90
10883;DHT22;5494;51.796;10.952;2022-07-29T05:25:41;16.90;99.90
10883;DHT22;5494;51.796;10.952;2022-07-29T05:28:11;17.00;99.90
10883;DHT22;5494;51.796;10.952;2022-07-29T05:30:39;17.00;99.90
10883;DHT22;5494;51.796;10.952;2022-07-29T05:33:08;16.90;99.90
10883;DHT22;5494;51.796;10.952;2022-07-29T05:35:58;16.90;99.90
10883;DHT22;5494;51.796;10.952;2022-07-29T05:38:27;16.90;99.90
10883;DHT22;5494;51.796;10.952;2022-07-29T05:40:56;16.80;99.90
10883;DHT22;5494;51.796;10.952;2022-07-29T05:43:26;16.80;99.90
10883;DHT22;5494;51.796;10.952;2022-07-29T05:45:56;16.70;99.90
10883;DHT22;5494;51.796;10.952;2022-07-29T05:48:24;16.90;99.90
10883;DHT22;5494;51.796;10.952;2022-07-29T05:50:53;17.00;99.90
10883;DHT22;5494;51.796;10.952;2022-07-29T05:53:24;17.30;99.90
10883;DHT22;5494;51.796;10.952;2022-07-29T05:55:53;17.50;99.90
10883;DHT22;5494;51.796;10.952;2022-07-29T05:58:22;17.70;99.90
10883;DHT22;5494;51.796;10.952;2022-07-29T06:00:50;17.80;99.90
10883;DHT22;5494;51.796;10.952;2022-07-29T06:03:19;18.10;99.90
10883;DHT22;5494;51.796;10.952;2022-07-29T06:05:48;18.50;99.90
10883;DHT22;5494;51.796;10.952;2022-07-29T06:08:16;18.50;99.90
10883;DHT22;5494;51.796;10.952;2022-07-29T06:10:46;18.70;99.90
10883;DHT22;5494;51.796;10.952;2022-07-29T06:13:15;18.80;99.90
10883;DHT22;5494;51.796;10.952;2022-07-29T06:15:43;18.80;99.90
10883;DHT22;5494;51.796;10.952;2022-07-29T06:18:12;18.60;99.90
10883;DHT22;5494;51.796;10.952;2022-07-29T06:20:41;18.60;99.90
10883;DHT22;5494;51.796;10.952;2022-07-29T06:23:09;18.80;99.90
10883;DHT22;5494;51.796;10.952;2022-07-29T06:25:39;18.80;99.90
10883;DHT22;5494;51.796;10.952;2022-07-29T06:28:10;18.70;99.90
10883;DHT22;5494;51.796;10.952;2022-07-29T06:30:38;18.70;99.90
10883;DHT22;5494;51.796;10.952;2022-07-29T06:33:07;19.00;99.90
10883;DHT22;5494;51.796;10.952;2022-07-29T06:35:35;19.30;99.90
10883;DHT22;5494;51.796;10.952;2022-07-29T06:38:11;19.50;99.90
10883;DHT22;5494;51.796;10.952;2022-07-29T06:41:00;19.10;99.90
10883;DHT22;5494;51.796;10.952;2022-07-29T06:43:32;19.20;99.90
10883;DHT22;5494;51.796;10.952;2022-07-29T06:46:18;19.50;99.90
10883;DHT22;5494;51.796;10.952;2022-07-29T06:48:48;19.90;99.90
10883;DHT22;5494;51.796;10.952;2022-07-29T06:51:19;20.20;99.90
10883;DHT22;5494;51.796;10.952;2022-07-29T06:53:50;20.10;99.90
10883;DHT22;5494;51.796;10.952;2022-07-29T06:56:29;20.00;99.90
10883;DHT22;5494;51.796;10.952;2022-07-29T06:59:09;19.90;99.90
10883;DHT22;5494;51.796;10.952;2022-07-29T07:01:41;20.40;99.90
10883;DHT22;5494;51.796;10.952;2022-07-29T07:04:11;20.80;99.90
10883;DHT22;5494;51.796;10.952;2022-07-29T07:06:41;21.20;99.90
10883;DHT22;5494;51.796;10.952;2022-07-29T07:09:09;21.20;99.90
10883;DHT22;5494;51.796;10.952;2022-07-29T07:11:38;21.80;99.90
10883;DHT22;5494;51.796;10.952;2022-07-29T07:14:08;22.20;99.90
10883;DHT22;5494;51.796;10.952;2022-07-29T07:16:37;22.20;99.90
10883;DHT22;5494;51.796;10.952;2022-07-29T07:19:06;21.60;99.90
10883;DHT22;5494;51.796;10.952;2022-07-29T07:21:34;21.20;99.90
10883;DHT22;5494;51.796;10.952;2022-07-29T07:24:03;21.20;99.90
10883;DHT22;5494;51.796;10.952;2022-07-29T07:26:33;21.80;99.90
10883;DHT22;5494;51.796;10.952;2022-07-29T07:29:01;22.80;99.90
10883;DHT22;5494;51.796;10.952;2022-07-29T07:31:31;23.50;99.30
10883;DHT22;5494;51.796;10.952;2022-07-29T07:34:00;23.80;98.60
10883;DHT22;5494;51.796;10.952;2022-07-29T07:36:28;23.60;98.30
10883;DHT22;5494;51.796;10.952;2022-07-29T07:38:56;23.70;98.40
10883;DHT22;5494;51.796;10.952;2022-07-29T07:41:25;23.80;98.10
10883;DHT22;5494;51.796;10.952;2022-07-29T07:43:58;23.90;98.00
10883;DHT22;5494;51.796;10.952;2022-07-29T07:46:27;23.80;97.80
10883;DHT22;5494;51.796;10.952;2022-07-29T07:48:57;23.80;97.20
10883;DHT22;5494;51.796;10.952;2022-07-29T07:51:26;23.30;97.90
10883;DHT22;5494;51.796;10.952;2022-07-29T07:53:54;23.30;97.90
10883;DHT22;5494;51.796;10.952;2022-07-29T07:56:23;23.30;97.80
10883;DHT22;5494;51.796;10.952;2022-07-29T07:58:52;23.00;98.40
10883;DHT22;5494;51.796;10.952;2022-07-29T08:01:20;22.90;99.00
10883;DHT22;5494;51.796;10.952;2022-07-29T08:03:50;23.20;98.30
10883;DHT22;5494;51.796;10.952;2022-07-29T08:06:20;23.40;97.70
10883;DHT22;5494;51.796;10.952;2022-07-29T08:08:48;24.00;96.90
10883;DHT22;5494;51.796;10.952;2022-07-29T08:11:18;24.30;96.60
10883;DHT22;5494;51.796;10.952;2022-07-29T08:13:48;24.50;95.50
10883;DHT22;5494;51.796;10.952;2022-07-29T08:16:17;24.50;95.80
10883;DHT22;5494;51.796;10.952;2022-07-29T08:18:46;24.80;95.20
10883;DHT22;5494;51.796;10.952;2022-07-29T08:21:16;25.40;94.60
10883;DHT22;5494;51.796;10.952;2022-07-29T08:23:46;25.30;93.80
10883;DHT22;5494;51.796;10.952;2022-07-29T08:26:28;25.20;94.10
10883;DHT22;5494;51.796;10.952;2022-07-29T08:28:57;25.40;93.40
10883;DHT22;5494;51.796;10.952;2022-07-29T08:31:26;25.60;92.70
10883;DHT22;5494;51.796;10.952;2022-07-29T08:33:54;25.60;92.90
10883;DHT22;5494;51.796;10.952;2022-07-29T08:36:27;25.80;92.30
10883;DHT22;5494;51.796;10.952;2022-07-29T08:38:57;25.90;92.90
10883;DHT22;5494;51.796;10.952;2022-07-29T08:41:26;25.30;93.40
10883;DHT22;5494;51.796;10.952;2022-07-29T08:43:55;25.20;92.80
10883;DHT22;5494;51.796;10.952;2022-07-29T08:46:24;25.00;93.20
10883;DHT22;5494;51.796;10.952;2022-07-29T08:48:52;25.20;94.20
10883;DHT22;5494;51.796;10.952;2022-07-29T08:51:25;25.10;93.60
10883;DHT22;5494;51.796;10.952;2022-07-29T08:53:57;24.80;93.90
10883;DHT22;5494;51.796;10.952;2022-07-29T08:56:27;24.30;94.80
10883;DHT22;5494;51.796;10.952;2022-07-29T08:58:58;24.20;95.30
10883;DHT22;5494;51.796;10.952;2022-07-29T09:01:33;24.30;95.00
10883;DHT22;5494;51.796;10.952;2022-07-29T09:04:11;24.30;94.70
10883;DHT22;5494;51.796;10.952;2022-07-29T09:06:47;24.70;94.40
10883;DHT22;5494;51.796;10.952;2022-07-29T09:09:20;25.20;94.30
10883;DHT22;5494;51.796;10.952;2022-07-29T09:11:49;25.70;93.10
10883;DHT22;5494;51.796;10.952;2022-07-29T09:14:19;25.60;92.30
10883;DHT22;5494;51.796;10.952;2022-07-29T09:16:50;25.40;93.00
10883;DHT22;5494;51.796;10.952;2022-07-29T09:19:25;24.90;94.00
10883;DHT22;5494;51.796;10.952;2022-07-29T09:21:57;24.90;93.60
10883;DHT22;5494;51.796;10.952;2022-07-29T09:24:40;24.70;93.60
10883;DHT22;5494;51.796;10.952;2022-07-29T09:27:12;24.60;94.30
10883;DHT22;5494;51.796;10.952;2022-07-29T09:29:56;24.50;94.40
10883;DHT22;5494;51.796;10.952;2022-07-29T09:32:27;24.80;94.10
10883;DHT22;5494;51.796;10.952;2022-07-29T09:35:17;25.20;93.80
10883;DHT22;5494;51.796;10.952;2022-07-29T09:37:47;25.90;92.80
10883;DHT22;5494;51.796;10.952;2022-07-29T09:40:19;26.70;91.90
10883;DHT22;5494;51.796;10.952;2022-07-29T09:42:50;27.70;91.40
10883;DHT22;5494;51.796;10.952;2022-07-29T09:45:29;28.30;88.70
10883;DHT22;5494;51.796;10.952;2022-07-29T09:48:13;27.40;89.70
10883;DHT22;5494;51.796;10.952;2022-07-29T09:50:44;27.20;89.40
10883;DHT22;5494;51.796;10.952;2022-07-29T09:53:30;27.20;90.00
10883;DHT22;5494;51.796;10.952;2022-07-29T09:56:00;27.10;89.70
10883;DHT22;5494;51.796;10.952;2022-07-29T09:58:29;27.60;89.30
10883;DHT22;5494;51.796;10.952;2022-07-29T10:00:57;28.00;86.70
10883;DHT22;5494;51.796;10.952;2022-07-29T10:03:26;27.70;86.80
10883;DHT22;5494;51.796;10.952;2022-07-29T10:06:06;27.90;87.20
10883;DHT22;5494;51.796;10.952;2022-07-29T10:08:35;28.20;85.40
10883;DHT22;5494;51.796;10.952;2022-07-29T10:11:13;28.40;84.40
10883;DHT22;5494;51.796;10.952;2022-07-29T10:13:44;27.70;85.90
10883;DHT22;5494;51.796;10.952;2022-07-29T10:16:15;27.50;87.60
10883;DHT22;5494;51.796;10.952;2022-07-29T10:18:45;27.60;86.20
10883;DHT22;5494;51.796;10.952;2022-07-29T10:21:14;27.10;86.80
10883;DHT22;5494;51.796;10.952;2022-07-29T10:24:04;26.50;88.50
10883;DHT22;5494;51.796;10.952;2022-07-29T10:26:43;26.20;88.00
10883;DHT22;5494;51.796;10.952;2022-07-29T10:29:13;26.20;88.70
10883;DHT22;5494;51.796;10.952;2022-07-29T10:31:50;26.00;90.00
10883;DHT22;5494;51.796;10.952;2022-07-29T10:34:36;25.80;89.90
10883;DHT22;5494;51.796;10.952;2022-07-29T10:37:28;25.90;90.30
10883;DHT22;5494;51.796;10.952;2022-07-29T10:40:21;25.40;90.50
10883;DHT22;5494;51.796;10.952;2022-07-29T10:43:18;25.20;91.60
10883;DHT22;5494;51.796;10.952;2022-07-29T10:45:56;25.40;91.20
10883;DHT22;5494;51.796;10.952;2022-07-29T10:48:27;25.50;91.30
10883;DHT22;5494;51.796;10.952;2022-07-29T10:50:58;25.30;92.00
10883;DHT22;5494;51.796;10.952;2022-07-29T10:53:50;25.40;91.50
10883;DHT22;5494;51.796;10.952;2022-07-29T10:56:24;25.80;91.50
10883;DHT22;5494;51.796;10.952;2022-07-29T11:02:41;26.30;90.70
10883;DHT22;5494;51.796;10.952;2022-07-29T11:05:17;26.10;89.70
10883;DHT22;5494;51.796;10.952;2022-07-29T11:08:16;25.80;90.30
10883;DHT22;5494;51.796;10.952;2022-07-29T11:14:03;26.00;89.80
10883;DHT22;5494;51.796;10.952;2022-07-29T11:17:00;26.40;88.80
10883;DHT22;5494;51.796;10.952;2022-07-29T11:19:51;26.50;86.70
10883;DHT22;5494;51.796;10.952;2022-07-29T11:22:41;26.40;87.20
10883;DHT22;5494;51.796;10.952;2022-07-29T11:25:13;26.40;86.00
10883;DHT22;5494;51.796;10.952;2022-07-29T11:27:44;26.50;85.20
10883;DHT22;5494;51.796;10.952;2022-07-29T11:30:14;26.30;86.10
10883;DHT22;5494;51.796;10.952;2022-07-29T11:32:45;26.30;85.60
10883;DHT22;5494;51.796;10.952;2022-07-29T11:35:16;26.20;85.70
10883;DHT22;5494;51.796;10.952;2022-07-29T11:38:24;26.00;84.10
10883;DHT22;5494;51.796;10.952;2022-07-29T11:41:21;25.90;84.40
10883;DHT22;5494;51.796;10.952;2022-07-29T11:43:54;26.00;83.00
10883;DHT22;5494;51.796;10.952;2022-07-29T11:46:45;26.00;82.40
10883;DHT22;5494;51.796;10.952;2022-07-29T11:49:20;26.10;82.20
10883;DHT22;5494;51.796;10.952;2022-07-29T11:52:10;26.00;82.80
10883;DHT22;5494;51.796;10.952;2022-07-29T11:54:42;25.80;83.30
10883;DHT22;5494;51.796;10.952;2022-07-29T11:57:28;26.00;83.40
10883;DHT22;5494;51.796;10.952;2022-07-29T12:00:05;26.10;82.60
10883;DHT22;5494;51.796;10.952;2022-07-29T12:02:57;26.10;82.20
10883;DHT22;5494;51.796;10.952;2022-07-29T12:05:35;26.20;82.80
10883;DHT22;5494;51.796;10.952;2022-07-29T12:08:16;26.10;82.10
10883;DHT22;5494;51.796;10.952;2022-07-29T12:10:48;26.10;81.80
10883;DHT22;5494;51.796;10.952;2022-07-29T12:13:20;26.10;82.60
10883;DHT22;5494;51.796;10.952;2022-07-29T12:16:04;26.20;81.60
10883;DHT22;5494;51.796;10.952;2022-07-29T12:18:33;26.20;81.40
10883;DHT22;5494;51.796;10.952;2022-07-29T12:21:02;26.20;81.90
10883;DHT22;5494;51.796;10.952;2022-07-29T12:23:31;26.20;80.40
10883;DHT22;5494;51.796;10.952;2022-07-29T12:26:04;26.20;81.00
10883;DHT22;5494;51.796;10.952;2022-07-29T12:28:48;26.20;80.90
10883;DHT22;5494;51.796;10.952;2022-07-29T12:31:16;26.40;80.60
10883;DHT22;5494;51.796;10.952;2022-07-29T12:34:05;26.50;81.60
10883;DHT22;5494;51.796;10.952;2022-07-29T12:36:35;26.50;79.80
10883;DHT22;5494;51.796;10.952;2022-07-29T12:39:04;26.20;81.50
10883;DHT22;5494;51.796;10.952;2022-07-29T12:41:33;26.10;80.30
10883;DHT22;5494;51.796;10.952;2022-07-29T12:44:03;25.80;81.20
10883;DHT22;5494;51.796;10.952;2022-07-29T12:46:31;25.60;81.50
10883;DHT22;5494;51.796;10.952;2022-07-29T12:49:00;25.50;82.20
10883;DHT22;5494;51.796;10.952;2022-07-29T12:51:31;25.60;81.10
10883;DHT22;5494;51.796;10.952;2022-07-29T12:54:07;25.90;81.50
10883;DHT22;5494;51.796;10.952;2022-07-29T12:56:38;26.00;80.00
10883;DHT22;5494;51.796;10.952;2022-07-29T12:59:14;25.90;79.50
10883;DHT22;5494;51.796;10.952;2022-07-29T13:01:45;26.00;80.00
10883;DHT22;5494;51.796;10.952;2022-07-29T13:04:26;26.20;78.40
10883;DHT22;5494;51.796;10.952;2022-07-29T13:07:01;26.30;78.00
10883;DHT22;5494;51.796;10.952;2022-07-29T13:09:40;26.10;78.30
10883;DHT22;5494;51.796;10.952;2022-07-29T13:12:11;25.90;79.30
10883;DHT22;5494;51.796;10.952;2022-07-29T13:14:43;25.90;80.30
10883;DHT22;5494;51.796;10.952;2022-07-29T13:17:14;26.20;79.00
10883;DHT22;5494;51.796;10.952;2022-07-29T13:19:45;26.40;78.30
10883;DHT22;5494;51.796;10.952;2022-07-29T13:22:16;26.20;78.80
10883;DHT22;5494;51.796;10.952;2022-07-29T13:24:48;26.20;76.80
10883;DHT22;5494;51.796;10.952;2022-07-29T13:27:18;26.30;77.10
10883;DHT22;5494;51.796;10.952;2022-07-29T13:29:48;26.40;76.30
10883;DHT22;5494;51.796;10.952;2022-07-29T13:32:18;26.40;76.80
10883;DHT22;5494;51.796;10.952;2022-07-29T13:34:55;26.20;75.50
10883;DHT22;5494;51.796;10.952;2022-07-29T13:37:24;26.00;76.10
10883;DHT22;5494;51.796;10.952;2022-07-29T13:39:58;27.30;77.90
10883;DHT22;5494;51.796;10.952;2022-07-29T13:42:27;26.00;75.60
10883;DHT22;5494;51.796;10.952;2022-07-29T13:44:55;26.20;76.00
10883;DHT22;5494;51.796;10.952;2022-07-29T13:47:24;26.20;76.60
10883;DHT22;5494;51.796;10.952;2022-07-29T13:50:00;26.10;75.70
10883;DHT22;5494;51.796;10.952;2022-07-29T13:52:29;26.20;76.80
10883;DHT22;5494;51.796;10.952;2022-07-29T13:54:59;26.10;75.80
10883;DHT22;5494;51.796;10.952;2022-07-29T13:57:28;26.20;76.30
10883;DHT22;5494;51.796;10.952;2022-07-29T13:59:57;26.30;76.30
10883;DHT22;5494;51.796;10.952;2022-07-29T14:02:25;26.40;75.00
10883;DHT22;5494;51.796;10.952;2022-07-29T14:04:54;26.60;74.80
10883;DHT22;5494;51.796;10.952;2022-07-29T14:07:23;26.50;74.70
10883;DHT22;5494;51.796;10.952;2022-07-29T14:09:51;26.40;75.30
10883;DHT22;5494;51.796;10.952;2022-07-29T14:12:21;26.20;75.80
10883;DHT22;5494;51.796;10.952;2022-07-29T14:14:49;26.20;75.30
10883;DHT22;5494;51.796;10.952;2022-07-29T14:17:18;26.30;75.40
10883;DHT22;5494;51.796;10.952;2022-07-29T14:19:46;26.60;75.60
10883;DHT22;5494;51.796;10.952;2022-07-29T14:22:14;26.70;75.70
10883;DHT22;5494;51.796;10.952;2022-07-29T14:24:49;26.70;76.10
10883;DHT22;5494;51.796;10.952;2022-07-29T14:27:17;26.70;75.80
10883;DHT22;5494;51.796;10.952;2022-07-29T14:30:07;26.60;76.10
10883;DHT22;5494;51.796;10.952;2022-07-29T14:32:37;26.40;76.90
10883;DHT22;5494;51.796;10.952;2022-07-29T14:35:06;26.50;76.80
10883;DHT22;5494;51.796;10.952;2022-07-29T14:37:36;26.60;76.80
10883;DHT22;5494;51.796;10.952;2022-07-29T14:40:08;26.70;76.40
10883;DHT22;5494;51.796;10.952;2022-07-29T14:42:37;26.90;75.90
10883;DHT22;5494;51.796;10.952;2022-07-29T14:45:09;27.10;76.00
10883;DHT22;5494;51.796;10.952;2022-07-29T14:47:38;27.00;76.10
10883;DHT22;5494;51.796;10.952;2022-07-29T14:50:07;27.00;76.10
10883;DHT22;5494;51.796;10.952;2022-07-29T14:52:37;26.90;76.20
10883;DHT22;5494;51.796;10.952;2022-07-29T14:55:07;27.00;75.40
10883;DHT22;5494;51.796;10.952;2022-07-29T14:57:47;27.00;76.50
10883;DHT22;5494;51.796;10.952;2022-07-29T15:00:18;27.10;75.40
10883;DHT22;5494;51.796;10.952;2022-07-29T15:02:47;27.00;75.40
10883;DHT22;5494;51.796;10.952;2022-07-29T15:05:28;27.00;76.30
10883;DHT22;5494;51.796;10.952;2022-07-29T15:07:59;27.10;75.70
10883;DHT22;5494;51.796;10.952;2022-07-29T15:10:27;27.00;75.10
10883;DHT22;5494;51.796;10.952;2022-07-29T15:12:57;27.00;75.90
10883;DHT22;5494;51.796;10.952;2022-07-29T15:15:26;27.00;76.30
10883;DHT22;5494;51.796;10.952;2022-07-29T15:17:55;26.90;76.40
10883;DHT22;5494;51.796;10.952;2022-07-29T15:20:23;27.00;74.80
10883;DHT22;5494;51.796;10.952;2022-07-29T15:22:54;26.90;75.40
10883;DHT22;5494;51.796;10.952;2022-07-29T15:25:23;26.90;75.40
10883;DHT22;5494;51.796;10.952;2022-07-29T15:27:54;26.90;75.40
10883;DHT22;5494;51.796;10.952;2022-07-29T15:30:30;27.00;76.00
10883;DHT22;5494;51.796;10.952;2022-07-29T15:33:01;27.10;75.30
10883;DHT22;5494;51.796;10.952;2022-07-29T15:35:31;27.00;75.40
10883;DHT22;5494;51.796;10.952;2022-07-29T15:38:07;26.90;77.50
10883;DHT22;5494;51.796;10.952;2022-07-29T15:40:37;27.00;77.90
10883;DHT22;5494;51.796;10.952;2022-07-29T15:43:07;27.00;75.50
10883;DHT22;5494;51.796;10.952;2022-07-29T15:45:38;26.90;76.30
10883;DHT22;5494;51.796;10.952;2022-07-29T15:48:08;26.60;76.20
10883;DHT22;5494;51.796;10.952;2022-07-29T15:50:41;26.60;76.90
10883;DHT22;5494;51.796;10.952;2022-07-29T15:53:13;26.60;77.00
10883;DHT22;5494;51.796;10.952;2022-07-29T15:55:41;26.50;77.90
10883;DHT22;5494;51.796;10.952;2022-07-29T15:58:10;26.50;77.10
10883;DHT22;5494;51.796;10.952;2022-07-29T16:00:40;26.50;77.20
10883;DHT22;5494;51.796;10.952;2022-07-29T16:03:08;26.60;77.50
10883;DHT22;5494;51.796;10.952;2022-07-29T16:05:37;26.70;76.80
10883;DHT22;5494;51.796;10.952;2022-07-29T16:08:05;26.70;77.00
10883;DHT22;5494;51.796;10.952;2022-07-29T16:10:33;26.60;76.50
10883;DHT22;5494;51.796;10.952;2022-07-29T16:13:02;26.60;76.90